Time;durP1;ratioP1;P1;durP2;ratioP2;P2;SDS_P1;SDS_P2;PMS_P1;PMS_P2;Temp;Humidity;BMP_temperature;BMP_pressure;BME280_temperature;BME280_humidity;BME280_pressure;Samples;Min_cycle;Max_cycle;Signal;HPM_P1;HPM_P2
2021/12/17 00:03:08;;;;;;;17.98;11.02;;;7.80;93.20;;;;;;5055129;28;20033;-80
2021/12/17 00:05:14;;;;;;;18.60;10.88;;;7.90;93.30;;;;;;5043837;28;20098;-80
2021/12/17 00:07:40;;;;;;;19.45;11.48;;;7.90;93.30;;;;;;5037079;28;20109;-80
2021/12/17 00:10:12;;;;;;;21.98;11.50;;;7.80;93.20;;;;;;5042371;28;20034;-80
2021/12/17 00:12:37;;;;;;;22.83;12.25;;;7.90;93.30;;;;;;5068155;28;20045;-80
2021/12/17 00:15:03;;;;;;;24.17;12.68;;;7.80;93.30;;;;;;5024945;28;20082;-80
2021/12/17 00:17:37;;;;;;;19.45;11.25;;;7.80;93.30;;;;;;5042858;28;20036;-80
2021/12/17 00:49:53;;;;;;;11.88;7.15;;;7.70;93.30;;;;;;5051261;28;20040;-80
2021/12/17 00:52:19;;;;;;;15.38;8.65;;;7.80;93.30;;;;;;5041022;28;20059;-80
2021/12/17 00:54:44;;;;;;;13.82;8.57;;;7.80;93.30;;;;;;5058438;28;20045;-80
2021/12/17 00:57:13;;;;;;;15.15;9.30;;;7.70;93.30;;;;;;5061085;28;20081;-80
2021/12/17 00:59:40;;;;;;;19.27;9.88;;;7.70;93.30;;;;;;5058311;28;20029;-80
2021/12/17 01:02:08;;;;;;;21.45;9.65;;;7.70;93.40;;;;;;5044684;28;20041;-80
2021/12/17 01:04:35;;;;;;;16.42;8.90;;;7.70;93.40;;;;;;5064962;28;20557;-80
2021/12/17 01:07:02;;;;;;;14.90;9.27;;;7.70;93.40;;;;;;5025149;28;20055;-80
2021/12/17 01:09:27;;;;;;;16.08;9.05;;;7.70;93.40;;;;;;5059043;28;20029;-80
2021/12/17 01:11:55;;;;;;;15.18;8.70;;;7.70;93.40;;;;;;5064313;28;20123;-80
2021/12/17 01:14:20;;;;;;;15.15;9.13;;;7.70;93.40;;;;;;5065832;28;20043;-80
2021/12/17 01:16:47;;;;;;;16.40;9.35;;;7.70;93.40;;;;;;5010881;28;20513;-80
2021/12/17 01:20:07;;;;;;;20.15;10.05;;;7.70;93.40;;;;;;5053775;28;20050;-80
2021/12/17 01:35:22;;;;;;;12.80;8.55;;;7.60;93.30;;;;;;5050079;28;21411;-80
2021/12/17 01:42:47;;;;;;;13.45;8.25;;;7.50;93.30;;;;;;5040746;28;20044;-80
2021/12/17 01:45:12;;;;;;;11.05;7.60;;;7.50;93.40;;;;;;5064586;28;20037;-80
2021/12/17 01:47:38;;;;;;;15.00;9.32;;;7.50;93.30;;;;;;5071514;28;20033;-80
2021/12/17 02:00:58;;;;;;;16.05;9.15;;;7.40;93.30;;;;;;5070152;28;21256;-80
2021/12/17 02:03:24;;;;;;;16.50;9.23;;;7.40;93.30;;;;;;5046629;28;20032;-80
2021/12/17 02:05:50;;;;;;;19.58;11.40;;;7.40;93.30;;;;;;5027838;28;20079;-80
2021/12/17 02:08:15;;;;;;;19.42;10.90;;;7.30;93.30;;;;;;5040855;28;20440;-80
2021/12/17 02:22:03;;;;;;;18.02;9.55;;;7.20;93.20;;;;;;5054615;28;20039;-80
2021/12/17 02:30:05;;;;;;;16.08;8.18;;;7.10;93.20;;;;;;5043230;28;20459;-79
2021/12/17 02:32:33;;;;;;;14.70;8.05;;;7.10;93.30;;;;;;5026775;28;20037;-80
2021/12/17 02:37:32;;;;;;;;;;;7.00;93.30;;;;;;5061048;28;20075;-80
2021/12/17 02:47:36;;;;;;;13.25;7.00;;;7.00;93.30;;;;;;5062010;28;20040;-80
2021/12/17 02:50:02;;;;;;;13.23;7.57;;;7.00;93.60;;;;;;5046102;28;20122;-80
2021/12/17 02:52:29;;;;;;;11.07;6.82;;;6.90;93.30;;;;;;5046271;28;20104;-80
2021/12/17 02:54:57;;;;;;;13.30;7.60;;;6.90;93.30;;;;;;5063502;28;20035;-80
2021/12/17 02:57:22;;;;;;;13.35;7.35;;;6.90;93.30;;;;;;5025418;28;20112;-80
2021/12/17 02:59:48;;;;;;;11.10;6.80;;;6.90;93.30;;;;;;5056217;28;20428;-80
2021/12/17 03:02:13;;;;;;;13.63;8.10;;;6.80;93.30;;;;;;5055624;28;20040;-80
2021/12/17 03:04:40;;;;;;;12.20;7.53;;;6.80;93.20;;;;;;5027280;28;20029;-80
2021/12/17 03:07:06;;;;;;;10.77;7.05;;;6.80;93.30;;;;;;5043268;28;20032;-80
2021/12/17 03:10:00;;;;;;;10.30;6.18;;;6.70;93.20;;;;;;5041509;28;20032;-80
2021/12/17 03:12:29;;;;;;;11.75;6.50;;;6.70;93.20;;;;;;5047422;28;20120;-80
2021/12/17 03:25:47;;;;;;;7.22;4.80;;;6.40;93.10;;;;;;5050318;28;20094;-80
2021/12/17 03:28:12;;;;;;;7.47;4.97;;;6.40;93.20;;;;;;5077831;28;20074;-80
2021/12/17 03:30:38;;;;;;;10.52;5.43;;;6.30;93.10;;;;;;5075185;28;20112;-80
2021/12/17 03:33:03;;;;;;;6.65;4.88;;;6.20;93.10;;;;;;5023137;28;20090;-80
2021/12/17 03:35:29;;;;;;;10.43;4.40;;;6.20;93.20;;;;;;5056737;28;20331;-80
2021/12/17 03:37:54;;;;;;;5.30;4.13;;;6.20;93.20;;;;;;5070522;28;20048;-80
2021/12/17 03:40:20;;;;;;;6.75;4.15;;;6.10;93.20;;;;;;5057925;28;20028;-80
2021/12/17 03:42:49;;;;;;;5.63;3.63;;;6.10;93.20;;;;;;5056159;28;20040;-80
2021/12/17 03:45:15;;;;;;;7.78;3.58;;;6.10;93.10;;;;;;5025374;28;20517;-80
2021/12/17 03:47:41;;;;;;;4.55;3.30;;;6.00;93.10;;;;;;5053229;28;20037;-80
2021/12/17 03:50:06;;;;;;;5.18;3.30;;;6.00;93.10;;;;;;5035226;28;20041;-79
2021/12/17 03:52:32;;;;;;;7.53;3.30;;;5.90;93.10;;;;;;5030583;28;20033;-80
2021/12/17 03:54:58;;;;;;;5.40;3.38;;;5.90;93.10;;;;;;5035834;28;20460;-80
2021/12/17 03:57:23;;;;;;;4.13;2.90;;;5.80;93.10;;;;;;5038304;28;20055;-80
2021/12/17 03:59:49;;;;;;;5.78;3.28;;;5.80;93.10;;;;;;5063133;28;20033;-80
2021/12/17 04:02:14;;;;;;;5.75;3.00;;;5.80;93.10;;;;;;5061387;28;20463;-80
2021/12/17 04:04:40;;;;;;;6.88;3.75;;;5.70;93.10;;;;;;5044631;28;20540;-80
2021/12/17 04:07:05;;;;;;;4.60;3.25;;;5.70;93.10;;;;;;5045983;28;20082;-80
2021/12/17 04:09:31;;;;;;;6.53;3.58;;;5.70;93.10;;;;;;5045625;28;20040;-80
2021/12/17 04:11:58;;;;;;;8.05;4.55;;;5.60;93.10;;;;;;5052784;28;20028;-80
2021/12/17 04:14:33;;;;;;;5.05;3.30;;;5.60;93.10;;;;;;5054693;28;20047;-80
2021/12/17 04:17:06;;;;;;;3.92;3.00;;;5.60;93.20;;;;;;5084778;28;20037;-80
2021/12/17 04:19:32;;;;;;;4.22;2.78;;;5.60;93.20;;;;;;5048702;28;20036;-80
2021/12/17 04:21:58;;;;;;;4.53;2.75;;;5.50;93.10;;;;;;5037036;28;20311;-80
2021/12/17 04:24:23;;;;;;;4.63;2.90;;;5.50;93.20;;;;;;5048904;28;20178;-80
2021/12/17 04:26:49;;;;;;;4.20;3.38;;;5.50;93.20;;;;;;5057766;28;20510;-80
2021/12/17 04:29:16;;;;;;;8.80;3.55;;;5.50;93.20;;;;;;5059105;28;20090;-80
2021/12/17 04:31:41;;;;;;;7.10;3.53;;;5.50;93.20;;;;;;5079968;28;20109;-80
2021/12/17 04:34:08;;;;;;;4.43;2.95;;;5.40;93.20;;;;;;5080779;28;20044;-80
2021/12/17 04:36:36;;;;;;;6.72;3.30;;;5.40;93.20;;;;;;5065315;28;20020;-80
2021/12/17 04:39:02;;;;;;;4.80;3.30;;;5.40;93.20;;;;;;5047455;28;20102;-80
2021/12/17 04:46:43;;;;;;;;;;;5.30;93.20;;;;;;5067944;28;20033;-79
2021/12/17 04:59:57;;;;;;;7.38;4.47;;;5.20;93.20;;;;;;5073092;28;20024;-80
2021/12/17 05:02:23;;;;;;;7.50;3.78;;;5.20;93.20;;;;;;5055566;28;20159;-82
2021/12/17 05:04:48;;;;;;;6.30;4.03;;;5.10;93.20;;;;;;5067365;28;20115;-82
2021/12/17 05:07:14;;;;;;;5.07;3.55;;;5.10;93.20;;;;;;5050863;28;20114;-82
2021/12/17 05:20:27;;;;;;;5.35;3.13;;;4.90;93.20;;;;;;5058937;28;20063;-82
2021/12/17 05:22:57;;;;;;;5.03;3.20;;;4.90;93.20;;;;;;5029549;28;20394;-82
2021/12/17 05:25:26;;;;;;;4.15;2.90;;;4.80;93.10;;;;;;5029737;28;20272;-82
2021/12/17 05:27:59;;;;;;;4.10;2.85;;;4.80;93.20;;;;;;5031988;28;20025;-82
2021/12/17 05:30:25;;;;;;;6.80;3.03;;;4.80;93.20;;;;;;5041172;28;20060;-83
2021/12/17 05:32:51;;;;;;;4.03;3.03;;;4.70;93.20;;;;;;5020811;28;20136;-82
2021/12/17 05:35:16;;;;;;;3.95;2.50;;;4.70;93.20;;;;;;5020037;28;20403;-82
2021/12/17 05:37:42;;;;;;;3.22;2.60;;;4.70;93.20;;;;;;4999727;28;20115;-82
2021/12/17 05:40:08;;;;;;;5.65;3.92;;;4.70;93.20;;;;;;5020605;28;20033;-82
2021/12/17 05:42:33;;;;;;;4.78;3.13;;;4.60;93.20;;;;;;4998317;28;20059;-82
2021/12/17 05:45:07;;;;;;;4.53;3.08;;;4.60;93.20;;;;;;5014613;28;20124;-82
2021/12/17 05:47:33;;;;;;;3.15;2.33;;;4.50;93.10;;;;;;5029240;28;20063;-82
2021/12/17 05:49:58;;;;;;;3.25;2.60;;;4.50;93.20;;;;;;5027952;28;20072;-81
2021/12/17 05:52:24;;;;;;;4.50;3.13;;;4.50;93.20;;;;;;5000878;28;20079;-83
2021/12/17 05:54:49;;;;;;;5.28;3.50;;;4.50;93.20;;;;;;5012649;28;20086;-83
2021/12/17 05:57:15;;;;;;;4.50;2.97;;;4.40;93.20;;;;;;5029265;28;20052;-82
2021/12/17 05:59:41;;;;;;;4.85;3.40;;;4.40;93.20;;;;;;4997723;28;20033;-82
2021/12/17 06:02:10;;;;;;;4.85;3.70;;;4.40;93.20;;;;;;5021625;28;20142;-83
2021/12/17 06:04:36;;;;;;;5.93;3.38;;;4.40;93.20;;;;;;5031824;28;20056;-82
2021/12/17 06:07:02;;;;;;;7.43;4.68;;;4.30;93.20;;;;;;5013474;28;20488;-82
2021/12/17 06:09:28;;;;;;;6.28;3.42;;;4.30;93.20;;;;;;5012801;28;20037;-83
2021/12/17 06:11:53;;;;;;;6.82;4.57;;;4.30;93.20;;;;;;5008796;28;20417;-82
2021/12/17 06:14:19;;;;;;;9.40;4.90;;;4.30;93.30;;;;;;5003473;28;20447;-81
2021/12/17 06:16:44;;;;;;;8.70;5.57;;;4.30;93.30;;;;;;5022345;28;20533;-82
2021/12/17 06:19:10;;;;;;;8.27;4.85;;;4.30;93.30;;;;;;5037894;28;20059;-81
2021/12/17 06:21:35;;;;;;;6.25;4.07;;;4.30;93.30;;;;;;5025401;28;20017;-82
2021/12/17 06:24:01;;;;;;;7.82;4.63;;;4.30;93.30;;;;;;5030399;28;20029;-82
2021/12/17 06:26:26;;;;;;;7.50;4.70;;;4.30;93.40;;;;;;5059993;28;20840;-83
2021/12/17 06:28:52;;;;;;;20.35;9.45;;;4.30;93.40;;;;;;5036790;28;20403;-82
2021/12/17 06:31:19;;;;;;;21.05;8.80;;;4.20;93.30;;;;;;5004765;28;20560;-82
2021/12/17 06:33:45;;;;;;;23.38;8.80;;;4.20;93.30;;;;;;4985889;28;20578;-82
2021/12/17 06:36:10;;;;;;;15.77;8.32;;;4.20;93.40;;;;;;5011054;28;20044;-82
2021/12/17 06:38:36;;;;;;;8.13;4.93;;;4.20;93.30;;;;;;4979609;28;20056;-82
2021/12/17 06:41:01;;;;;;;8.23;4.45;;;4.20;93.70;;;;;;5015281;28;20039;-83
2021/12/17 06:43:34;;;;;;;12.70;5.07;;;4.20;93.30;;;;;;5000471;28;20403;-83
2021/12/17 06:46:15;;;;;;;22.60;5.22;;;4.10;93.20;;;;;;5029363;28;20037;-83
2021/12/17 06:48:41;;;;;;;11.85;4.68;;;4.10;93.30;;;;;;5003076;28;20038;-82
2021/12/17 06:59:37;;;;;;;24.05;5.47;;;4.10;93.30;;;;;;5040857;28;20465;-82
2021/12/17 07:10:29;;;;;;;14.07;6.28;;;4.00;93.40;;;;;;5024947;28;20080;-82
2021/12/17 07:34:02;;;;;;;18.40;6.75;;;4.10;93.50;;;;;;5050254;28;20041;-80
2021/12/17 07:36:37;;;;;;;18.85;6.97;;;4.10;93.50;;;;;;5010015;28;20105;-80
2021/12/17 07:39:03;;;;;;;14.98;6.15;;;4.10;93.50;;;;;;5026447;28;20037;-79
2021/12/17 07:41:29;;;;;;;18.85;6.20;;;4.10;93.50;;;;;;5017442;28;20105;-80
2021/12/17 07:43:58;;;;;;;13.80;5.45;;;4.10;93.60;;;;;;5032065;28;20112;-80
2021/12/17 07:46:24;;;;;;;12.45;6.90;;;4.10;93.60;;;;;;5060025;28;20145;-80
2021/12/17 07:48:49;;;;;;;9.38;6.07;;;4.10;93.60;;;;;;5028290;28;20689;-80
2021/12/17 07:51:17;;;;;;;13.48;6.25;;;4.10;93.60;;;;;;5014913;28;20033;-80
2021/12/17 07:53:42;;;;;;;10.40;6.43;;;4.10;93.60;;;;;;5039529;28;20568;-81
2021/12/17 07:56:09;;;;;;;9.45;6.13;;;4.20;93.70;;;;;;5070951;28;20041;-80
2021/12/17 07:58:35;;;;;;;11.85;8.00;;;4.20;93.70;;;;;;5044216;28;20064;-80
2021/12/17 08:01:01;;;;;;;29.63;13.38;;;4.20;93.70;;;;;;5036146;28;20447;-80
2021/12/17 08:03:26;;;;;;;16.45;8.25;;;4.20;93.70;;;;;;5050095;28;20047;-80
2021/12/17 08:05:52;;;;;;;16.98;9.52;;;4.20;93.70;;;;;;5063683;28;20036;-80
2021/12/17 08:08:18;;;;;;;12.75;7.90;;;4.20;93.70;;;;;;5062097;28;20214;-81
2021/12/17 08:10:44;;;;;;;14.63;8.50;;;4.30;93.70;;;;;;5066270;28;20062;-80
2021/12/17 08:13:17;;;;;;;15.07;8.98;;;4.30;93.70;;;;;;5064497;28;20108;-80
2021/12/17 08:15:50;;;;;;;15.38;9.15;;;4.30;93.70;;;;;;5037358;28;20033;-80
2021/12/17 08:26:25;;;;;;;22.48;10.35;;;4.40;93.70;;;;;;5039241;28;20047;-80
2021/12/17 08:31:25;;;;;;;19.42;9.40;;;4.40;93.80;;;;;;5040371;28;20065;-81
2021/12/17 08:33:50;;;;;;;19.80;9.65;;;4.50;93.80;;;;;;5043409;28;20622;-80
2021/12/17 08:36:16;;;;;;;16.85;10.07;;;4.50;93.80;;;;;;5046097;28;20137;-79
2021/12/17 08:38:43;;;;;;;19.10;9.25;;;4.50;93.80;;;;;;5050903;28;20045;-81
2021/12/17 08:41:09;;;;;;;19.65;10.70;;;4.60;93.80;;;;;;5011385;28;20028;-80
2021/12/17 08:43:35;;;;;;;22.15;10.23;;;4.60;93.80;;;;;;5064065;28;20044;-80
2021/12/17 08:46:00;;;;;;;13.35;8.65;;;4.60;93.90;;;;;;5050268;28;20280;-80
2021/12/17 08:48:26;;;;;;;16.50;9.40;;;4.60;93.90;;;;;;5060127;28;20584;-81
2021/12/17 08:50:51;;;;;;;20.55;9.75;;;4.70;93.90;;;;;;5018605;28;20050;-80
2021/12/17 08:53:17;;;;;;;18.42;9.38;;;4.70;93.90;;;;;;5046915;28;20577;-80
2021/12/17 08:55:42;;;;;;;16.67;8.77;;;4.70;93.90;;;;;;5066936;28;20505;-81
2021/12/17 08:58:12;;;;;;;20.52;8.73;;;4.80;93.90;;;;;;5062711;28;20028;-80
2021/12/17 09:00:38;;;;;;;20.70;9.15;;;4.80;94.00;;;;;;5048396;28;20054;-80
2021/12/17 09:03:03;;;;;;;13.60;8.13;;;4.80;93.90;;;;;;5046406;28;20024;-80
2021/12/17 09:05:29;;;;;;;16.98;8.90;;;4.90;94.00;;;;;;5061674;28;20123;-80
2021/12/17 09:07:54;;;;;;;13.73;7.95;;;4.90;94.20;;;;;;5038861;28;20044;-80
2021/12/17 09:10:22;;;;;;;17.02;8.82;;;4.90;94.00;;;;;;5050705;28;20037;-80
2021/12/17 09:12:48;;;;;;;21.65;11.85;;;5.00;94.00;;;;;;5041844;28;20418;-80
2021/12/17 09:15:14;;;;;;;20.25;10.40;;;5.00;94.00;;;;;;5040456;28;20032;-80
2021/12/17 09:17:40;;;;;;;20.52;9.68;;;5.10;94.00;;;;;;5050798;28;20056;-80
2021/12/17 09:20:06;;;;;;;19.67;10.15;;;5.10;94.00;;;;;;5045554;28;20491;-80
2021/12/17 09:22:32;;;;;;;18.25;8.95;;;5.10;94.00;;;;;;5054380;28;20037;-80
2021/12/17 09:24:58;;;;;;;18.25;10.02;;;5.10;94.00;;;;;;5043507;28;20151;-80
2021/12/17 09:27:23;;;;;;;23.67;11.70;;;5.20;94.00;;;;;;5056711;28;20491;-80
2021/12/17 09:29:49;;;;;;;20.83;12.02;;;5.20;94.00;;;;;;5043134;28;20377;-80
2021/12/17 09:32:14;;;;;;;231.60;94.18;;;5.20;94.00;;;;;;5035009;28;20050;-80
2021/12/17 09:34:40;;;;;;;132.85;63.58;;;5.30;94.00;;;;;;5038242;28;20081;-80
2021/12/17 09:37:06;;;;;;;33.30;17.23;;;5.30;94.00;;;;;;5048972;28;20558;-80
2021/12/17 09:39:32;;;;;;;32.33;16.95;;;5.40;94.00;;;;;;5041184;28;20040;-80
2021/12/17 09:41:57;;;;;;;27.85;15.90;;;5.40;94.00;;;;;;5058811;28;20254;-81
2021/12/17 09:44:23;;;;;;;20.90;11.50;;;5.40;94.00;;;;;;5056823;28;20052;-80
2021/12/17 09:46:48;;;;;;;24.25;13.70;;;5.50;94.00;;;;;;5045732;28;20033;-80
2021/12/17 09:49:15;;;;;;;20.80;10.95;;;5.50;94.00;;;;;;5026947;28;20551;-80
2021/12/17 09:51:41;;;;;;;15.35;9.80;;;5.50;94.00;;;;;;5080951;28;20041;-80
2021/12/17 09:54:06;;;;;;;42.85;25.02;;;5.60;94.00;;;;;;5026571;28;20503;-80
2021/12/17 09:56:32;;;;;;;40.58;22.92;;;5.60;94.00;;;;;;5031190;28;20024;-80
2021/12/17 09:58:58;;;;;;;36.67;21.92;;;5.60;94.00;;;;;;5061158;28;20357;-80
2021/12/17 10:01:24;;;;;;;30.73;17.17;;;5.70;94.00;;;;;;5050537;28;20032;-80
2021/12/17 10:04:15;;;;;;;19.20;12.32;;;5.70;94.00;;;;;;5043979;28;20035;-80
2021/12/17 10:06:41;;;;;;;21.75;10.93;;;5.70;94.00;;;;;;5044716;28;20094;-80
2021/12/17 10:09:06;;;;;;;19.08;11.90;;;5.80;94.00;;;;;;5059546;28;20036;-80
2021/12/17 10:11:32;;;;;;;18.67;10.63;;;5.80;94.00;;;;;;5031959;28;20040;-80
2021/12/17 10:14:17;;;;;;;18.75;10.98;;;5.90;94.00;;;;;;5042872;28;20115;-80
2021/12/17 10:16:43;;;;;;;19.75;11.07;;;6.00;94.00;;;;;;5040865;28;20123;-80
2021/12/17 10:19:09;;;;;;;14.55;9.75;;;6.10;94.00;;;;;;5059341;28;20111;-80
2021/12/17 10:21:38;;;;;;;15.35;9.65;;;6.10;94.00;;;;;;5039768;28;20205;-80
2021/12/17 10:24:04;;;;;;;13.15;8.40;;;6.20;94.30;;;;;;5044245;28;20516;-80
2021/12/17 10:26:40;;;;;;;16.85;10.13;;;6.30;93.90;;;;;;5075485;28;20032;-80
2021/12/17 10:29:05;;;;;;;18.42;10.88;;;6.30;93.90;;;;;;5024706;28;20499;-80
2021/12/17 10:31:33;;;;;;;16.55;9.05;;;6.40;93.80;;;;;;5051791;28;20517;-80
2021/12/17 10:34:01;;;;;;;13.98;9.07;;;6.40;93.80;;;;;;5043609;28;20198;-80
2021/12/17 10:36:34;;;;;;;17.33;10.10;;;6.40;93.80;;;;;;5059114;28;20209;-80
2021/12/17 10:39:02;;;;;;;14.85;9.57;;;6.50;93.80;;;;;;5039061;28;20123;-80
2021/12/17 10:41:28;;;;;;;11.68;7.97;;;6.50;93.70;;;;;;5063005;28;20138;-80
2021/12/17 10:43:59;;;;;;;13.75;8.80;;;6.50;93.70;;;;;;5050325;28;20048;-80
2021/12/17 10:46:28;;;;;;;11.23;7.68;;;6.60;93.70;;;;;;5027573;28;20036;-80
2021/12/17 10:54:03;;;;;;;49.28;24.30;;;6.70;93.50;;;;;;5062232;28;20020;-80
2021/12/17 10:56:33;;;;;;;20.63;13.48;;;6.70;93.40;;;;;;5050781;28;20037;-80
2021/12/17 10:59:03;;;;;;;15.75;9.23;;;6.70;93.40;;;;;;5039026;28;20029;-80
2021/12/17 11:01:33;;;;;;;15.52;9.98;;;6.70;93.30;;;;;;5063750;28;20553;-79
2021/12/17 11:04:23;;;;;;;14.70;8.75;;;6.80;93.30;;;;;;5045983;28;20379;-80
2021/12/17 11:07:03;;;;;;;9.40;6.05;;;6.80;93.20;;;;;;5029174;28;20116;-80
2021/12/17 11:09:35;;;;;;;10.23;6.20;;;6.80;93.20;;;;;;5042099;28;20040;-80
2021/12/17 11:12:07;;;;;;;7.95;5.88;;;6.80;93.10;;;;;;5032165;28;20032;-80
2021/12/17 11:14:33;;;;;;;10.55;6.00;;;6.80;93.10;;;;;;5038180;28;20033;-80
2021/12/17 11:16:58;;;;;;;11.80;7.20;;;6.80;93.10;;;;;;5060328;28;20235;-80
2021/12/17 11:19:24;;;;;;;9.60;6.50;;;6.80;93.10;;;;;;5076898;28;20028;-80
2021/12/17 11:21:49;;;;;;;8.77;6.53;;;6.90;93.00;;;;;;5056503;28;20031;-80
2021/12/17 11:24:15;;;;;;;9.35;6.25;;;6.90;93.00;;;;;;5057123;28;20032;-80
2021/12/17 11:26:41;;;;;;;8.02;5.55;;;6.90;92.90;;;;;;5075133;28;20479;-80
2021/12/17 11:29:06;;;;;;;8.20;6.32;;;6.90;92.80;;;;;;5028841;28;20116;-80
2021/12/17 11:31:32;;;;;;;6.88;5.20;;;6.90;92.80;;;;;;5011601;28;20123;-80
2021/12/17 11:34:00;;;;;;;6.75;4.95;;;6.90;93.10;;;;;;5046463;28;20035;-80
2021/12/17 11:36:25;;;;;;;6.47;4.93;;;6.90;92.70;;;;;;5031588;28;20038;-80
2021/12/17 11:38:57;;;;;;;5.70;4.55;;;7.00;92.70;;;;;;5078103;28;20047;-80
2021/12/17 11:41:36;;;;;;;7.05;4.35;;;7.00;92.60;;;;;;5034466;28;20025;-80
2021/12/17 11:44:02;;;;;;;8.60;5.43;;;7.00;92.50;;;;;;5052023;28;20097;-79
2021/12/17 11:46:32;;;;;;;8.98;5.13;;;7.00;92.50;;;;;;5062161;28;20051;-79
2021/12/17 11:48:59;;;;;;;9.35;4.93;;;7.00;92.50;;;;;;5065710;28;20071;-80
2021/12/17 11:51:29;;;;;;;7.65;5.10;;;7.00;92.40;;;;;;5050850;28;20491;-83
2021/12/17 11:53:59;;;;;;;8.43;6.13;;;7.00;92.30;;;;;;5055260;28;20028;-82
2021/12/17 11:56:42;;;;;;;7.22;4.68;;;7.00;92.30;;;;;;5060310;28;20036;-82
2021/12/17 11:59:24;;;;;;;7.82;4.80;;;7.00;92.20;;;;;;5058691;28;20063;-82
2021/12/17 12:02:11;;;;;;;7.95;4.90;;;7.00;92.30;;;;;;5058408;28;20043;-83
2021/12/17 12:04:47;;;;;;;8.23;5.53;;;7.10;92.30;;;;;;5062024;28;20596;-84
2021/12/17 12:07:15;;;;;;;12.75;6.50;;;7.10;92.20;;;;;;5070558;28;20043;-82
2021/12/17 12:10:12;;;;;;;9.32;5.75;;;7.10;92.20;;;;;;5044889;28;20491;-83
2021/12/17 12:12:38;;;;;;;10.27;5.93;;;7.10;92.00;;;;;;5049298;28;20036;-83
2021/12/17 12:15:27;;;;;;;8.75;6.28;;;7.10;92.10;;;;;;5061657;28;20028;-84
2021/12/17 12:18:01;;;;;;;6.97;4.80;;;7.10;92.00;;;;;;5064585;28;20818;-84
2021/12/17 12:20:49;;;;;;;7.13;4.68;;;7.10;92.10;;;;;;5033467;28;20036;-84
2021/12/17 12:23:26;;;;;;;6.38;4.72;;;7.20;92.00;;;;;;5048179;28;20506;-82
2021/12/17 12:26:01;;;;;;;7.20;4.40;;;7.20;92.00;;;;;;5066555;28;20044;-82
2021/12/17 12:28:44;;;;;;;9.55;5.85;;;7.20;91.90;;;;;;5036474;28;20032;-82
2021/12/17 12:31:11;;;;;;;6.85;4.50;;;7.20;91.80;;;;;;5069404;28;20090;-81
2021/12/17 12:33:36;;;;;;;7.93;4.95;;;7.20;91.90;;;;;;5051554;28;20074;-81
2021/12/17 12:36:02;;;;;;;8.68;5.30;;;7.20;91.80;;;;;;5066325;28;20033;-81
2021/12/17 12:38:30;;;;;;;7.25;4.55;;;7.20;91.80;;;;;;5047946;28;20102;-82
2021/12/17 12:40:57;;;;;;;6.90;5.15;;;7.20;91.70;;;;;;5025013;28;20043;-81
2021/12/17 12:43:30;;;;;;;8.23;5.13;;;7.20;91.70;;;;;;5047769;28;20093;-81
2021/12/17 12:45:56;;;;;;;7.63;5.75;;;7.20;91.70;;;;;;5066834;28;20032;-81
2021/12/17 12:48:39;;;;;;;9.32;6.05;;;7.30;91.70;;;;;;5057162;28;20041;-81
2021/12/17 12:51:20;;;;;;;10.70;5.80;;;7.30;91.60;;;;;;5074709;28;20037;-81
2021/12/17 12:54:06;;;;;;;6.93;4.82;;;7.30;91.50;;;;;;5053913;28;20545;-81
2021/12/17 12:56:31;;;;;;;7.35;5.47;;;7.30;91.50;;;;;;5049903;28;20037;-81
2021/12/17 12:58:57;;;;;;;6.78;4.97;;;7.30;91.60;;;;;;5057992;28;20067;-81
2021/12/17 13:01:23;;;;;;;7.88;5.28;;;7.30;91.50;;;;;;5065144;28;20047;-81
2021/12/17 13:03:48;;;;;;;6.43;5.28;;;7.30;91.50;;;;;;5033876;28;20040;-81
2021/12/17 13:06:16;;;;;;;8.10;5.50;;;7.30;91.50;;;;;;5061127;28;20051;-81
2021/12/17 13:08:42;;;;;;;7.18;4.60;;;7.30;91.40;;;;;;5058407;28;20916;-81
2021/12/17 13:11:08;;;;;;;8.68;6.18;;;7.30;91.40;;;;;;5049361;28;20035;-81
2021/12/17 13:13:43;;;;;;;6.53;4.68;;;7.30;91.40;;;;;;5031419;28;20029;-81
2021/12/17 13:16:22;;;;;;;7.60;5.35;;;7.30;91.40;;;;;;5033803;28;20161;-80
2021/12/17 13:21:46;;;;;;;10.88;5.82;;;7.40;91.40;;;;;;5041566;28;20105;-81
2021/12/17 13:24:16;;;;;;;7.88;5.43;;;7.40;91.40;;;;;;5050693;28;20044;-81
2021/12/17 13:26:53;;;;;;;7.38;4.97;;;7.40;91.30;;;;;;5059457;28;20040;-81
2021/12/17 13:29:30;;;;;;;6.15;4.53;;;7.40;91.30;;;;;;5055457;28;20041;-81
2021/12/17 13:31:56;;;;;;;6.75;4.47;;;7.40;91.20;;;;;;5075388;28;20035;-81
2021/12/17 13:34:41;;;;;;;5.97;4.18;;;7.40;91.20;;;;;;5045199;28;21778;-80
2021/12/17 13:37:21;;;;;;;6.45;4.80;;;7.40;91.10;;;;;;5037918;28;20254;-81
2021/12/17 13:39:59;;;;;;;6.20;4.28;;;7.40;91.20;;;;;;5040711;28;20060;-81
2021/12/17 13:42:27;;;;;;;6.05;4.57;;;7.40;91.20;;;;;;5026658;28;20120;-81
2021/12/17 13:45:06;;;;;;;8.23;5.00;;;7.40;91.20;;;;;;5040593;28;20029;-81
2021/12/17 13:47:40;;;;;;;8.27;5.35;;;7.40;91.10;;;;;;5055923;28;20063;-81
2021/12/17 13:50:05;;;;;;;7.25;5.03;;;7.40;91.10;;;;;;5045491;28;20040;-81
2021/12/17 13:52:31;;;;;;;5.55;4.63;;;7.40;91.10;;;;;;5056072;28;20124;-81
2021/12/17 13:54:59;;;;;;;6.88;4.75;;;7.40;91.10;;;;;;5057036;28;20036;-81
2021/12/17 13:57:26;;;;;;;13.60;5.80;;;7.40;91.00;;;;;;5062202;28;20064;-84
2021/12/17 13:59:51;;;;;;;9.63;6.57;;;7.40;91.00;;;;;;5047310;28;20151;-84
2021/12/17 14:02:19;;;;;;;9.15;5.93;;;7.40;91.00;;;;;;5040790;28;20515;-81
2021/12/17 14:05:02;;;;;;;8.00;6.03;;;7.40;90.90;;;;;;5038206;28;20062;-80
2021/12/17 14:07:30;;;;;;;7.93;4.95;;;7.40;90.80;;;;;;5031083;28;20047;-81
2021/12/17 14:09:59;;;;;;;7.38;5.40;;;7.40;90.90;;;;;;5044635;28;20047;-81
2021/12/17 14:12:31;;;;;;;7.88;5.88;;;7.40;90.80;;;;;;5063619;28;20092;-84
2021/12/17 14:14:57;;;;;;;;;;;7.30;90.80;;;;;;5056839;28;20032;-84
2021/12/17 14:17:22;;;;;;;6.18;4.57;;;7.30;90.90;;;;;;5063781;28;20510;-84
2021/12/17 14:19:48;;;;;;;12.48;7.63;;;7.30;90.90;;;;;;5044538;28;20086;-83
2021/12/17 14:22:33;;;;;;;11.98;7.88;;;7.30;90.90;;;;;;5048261;28;20098;-84
2021/12/17 14:24:59;;;;;;;9.68;6.32;;;7.30;90.80;;;;;;5034435;28;20521;-82
2021/12/17 14:27:45;;;;;;;7.00;4.55;;;7.30;90.90;;;;;;5063608;28;20068;-84
2021/12/17 14:30:11;;;;;;;6.35;4.45;;;7.40;90.70;;;;;;5044048;28;20303;-84
2021/12/17 14:32:43;;;;;;;6.00;4.35;;;7.40;90.90;;;;;;5043642;28;20228;-81
2021/12/17 14:35:09;;;;;;;6.40;3.95;;;7.30;90.80;;;;;;5055193;28;20047;-84
2021/12/17 14:37:51;;;;;;;8.55;4.60;;;7.30;90.80;;;;;;5066626;28;20044;-82
2021/12/17 14:40:38;;;;;;;6.50;4.72;;;7.40;90.70;;;;;;5020655;28;20044;-83
2021/12/17 14:43:24;;;;;;;5.22;3.90;;;7.30;90.70;;;;;;5064106;28;20406;-85
2021/12/17 14:45:56;;;;;;;6.32;3.97;;;7.30;90.70;;;;;;5005433;28;20154;-83
2021/12/17 14:48:30;;;;;;;6.22;4.00;;;7.40;90.80;;;;;;5043827;28;20036;-84
2021/12/17 15:04:41;;;;;;;5.13;3.38;;;7.30;90.80;;;;;;5039395;28;20052;-84
2021/12/17 15:07:07;;;;;;;5.07;3.47;;;7.30;90.80;;;;;;5046800;28;20133;-84
2021/12/17 15:09:34;;;;;;;7.18;3.30;;;7.30;90.80;;;;;;5028701;28;20110;-85
2021/12/17 15:12:01;;;;;;;4.93;3.10;;;7.30;90.80;;;;;;5014910;28;20036;-84
2021/12/17 15:14:27;;;;;;;5.38;3.80;;;7.30;90.80;;;;;;5071465;28;20181;-81
2021/12/17 15:16:53;;;;;;;4.93;3.42;;;7.30;90.80;;;;;;5055143;28;20114;-81
2021/12/17 15:19:19;;;;;;;6.78;4.18;;;7.30;90.90;;;;;;5040588;28;20033;-81
2021/12/17 15:21:44;;;;;;;5.00;3.35;;;7.30;90.90;;;;;;5020358;28;20051;-81
2021/12/17 15:24:10;;;;;;;7.40;4.00;;;7.20;90.80;;;;;;5045961;28;20968;-81
2021/12/17 15:26:35;;;;;;;5.90;3.80;;;7.20;90.90;;;;;;5067180;28;20037;-81
2021/12/17 15:29:01;;;;;;;5.88;3.67;;;7.20;90.90;;;;;;5036606;28;20098;-81
2021/12/17 15:31:26;;;;;;;5.75;3.80;;;7.10;90.90;;;;;;5048033;28;20502;-83
2021/12/17 15:33:52;;;;;;;6.43;3.80;;;7.10;90.90;;;;;;5046699;28;20184;-82
2021/12/17 15:36:17;;;;;;;6.38;3.45;;;7.10;90.90;;;;;;5054818;28;20687;-83
2021/12/17 15:38:43;;;;;;;3.92;3.10;;;7.10;90.90;;;;;;5043757;28;20052;-83
2021/12/17 15:41:09;;;;;;;4.25;2.88;;;7.00;90.90;;;;;;5015353;28;20024;-85
2021/12/17 15:43:35;;;;;;;4.68;2.88;;;7.00;90.90;;;;;;5037240;28;20037;-84
2021/12/17 15:46:00;;;;;;;6.38;3.30;;;7.00;90.90;;;;;;5044656;28;20036;-84
2021/12/17 15:48:26;;;;;;;4.38;3.42;;;6.90;90.90;;;;;;5040556;28;20037;-80
2021/12/17 15:50:51;;;;;;;5.78;4.13;;;6.90;90.90;;;;;;5046337;28;20045;-83
2021/12/17 15:53:17;;;;;;;5.15;3.40;;;6.90;91.00;;;;;;5022723;28;20049;-83
2021/12/17 15:55:43;;;;;;;5.47;3.80;;;6.90;91.00;;;;;;5058962;28;20057;-84
2021/12/17 15:58:09;;;;;;;5.97;3.55;;;6.90;91.00;;;;;;5020245;28;20367;-81
2021/12/17 16:00:36;;;;;;;8.35;4.60;;;6.80;91.00;;;;;;5061170;28;20043;-82
2021/12/17 16:03:02;;;;;;;8.23;5.03;;;6.80;91.00;;;;;;5038955;28;20475;-82
2021/12/17 16:05:28;;;;;;;9.93;5.78;;;6.80;91.00;;;;;;5057049;28;20044;-81
2021/12/17 16:07:56;;;;;;;7.90;5.32;;;6.80;91.00;;;;;;5073781;28;20118;-82
2021/12/17 16:18:43;;;;;;;8.38;5.50;;;6.60;91.00;;;;;;5019911;28;20103;-82
2021/12/17 16:21:09;;;;;;;8.98;5.47;;;6.60;91.00;;;;;;5038355;28;20035;-83
2021/12/17 16:23:49;;;;;;;10.45;5.72;;;6.60;91.00;;;;;;5080180;28;20043;-80